Airfield :
LOGIN :

Register | Disclaimer

   EN    FR    IT 

 










Legend :    VFR   Marginal VFR   IFR   Intensive IFR   Very Intensive IFR
Visi :
Ceiling :
>= 8 km
>= 3000ft
5 to 8 km
1000 to 3000 ft
1500m to 5 km
500 to 1000 ft
800 to 1500m
200 to 500 ft
< 800m
< 200 ft
Symbols :   Thunderstorms  Fog  Heavy snow  Heavy precipitations  Wind > 20 kt
SIGMETs :     Misc.  Thunderstorms  Icing  Turbulence  Mountain Waves  Volcanic Ashes






- Airport Elevation : 1363 ft


ETIC - Grafenwohr Army Air Field

CURRENT METAR :
  • 182256Z AUTO 22003KT 9999 FEW060 OVC080 04/M01 A3016 RMK AO2 SLP228 T00441006 400660034 $

EXPIRED METARs :
  • 182156Z AUTO 22005KT 9999 SCT041 BKN070 OVC080 05/00 A3018 RMK AO2 SLP235 T00451005 $
  • 182056Z AUTO 22005KT 9999 SCT055 OVC070 05/00 A3020 RMK AO2 SLP242 T00461002 57007 $

TAF TAF ETIC
Valid from the 18 at 18:00 until the 20 at 00:00 UTC


181800Z 1818/1924 25012KT 9999 VCSH BKN030 OVC050 610307 QNH3024INS
BECMG 1820/1821 25009KT 9999 NSW BKN015 OVC030 620159 QNH3022INS
BECMG 1902/1903 22012KT 8000 BR BKN015 OVC030 620159 QNH3010INS
BECMG 1905/1906 22012G18KT 8000 -RASN BKN015 OVC030 620159 QNH3003INS
TEMPO 1908/1915 28015G25KT 5000 SHRA BR BKN010 OVC020 610109 510005
BECMG 1919/1920 27009KT 8000 BR BKN015 OVC030 620159 QNH3016INS TX04/1818Z TN02/1918Z



MET'MAP, your aeronautical weather chart ! - Copyright ORBIFLY December 2007 - Disclaimer

ORBIFLY MET'MAP TEAM :

Programming & Development : Alexandra Zaïnal
Concept & original design : Baudouin d'Aumeries
Assistance for programming : Marc-Olivier Méhu
Technical & hardware support : Manuel Goepfert

Contact : metmap@orbifly.com




SOURCES & CREDITS :

   NOAA